Time;durP1;ratioP1;P1;durP2;ratioP2;P2;SDS_P1;SDS_P2;PMS_P1;PMS_P2;Temp;Humidity;BMP_temperature;BMP_pressure;BME280_temperature;BME280_humidity;BME280_pressure;Samples;Min_cycle;Max_cycle;Signal;HPM_P1;HPM_P2
2022/03/19 00:01:36;;;;;;;18.33;6.28;;;;;;;;;;5034289;28;20500;-82
2022/03/19 00:04:02;;;;;;;18.67;6.15;;;;;;;;;;5035365;28;20248;-80
2022/03/19 00:06:28;;;;;;;17.58;5.55;;;;;;;;;;5038604;28;20014;-80
2022/03/19 00:08:56;;;;;;;15.93;6.35;;;;;;;;;;5041756;28;20101;-83
2022/03/19 00:11:23;;;;;;;15.00;5.93;;;;;;;;;;5042344;28;20028;-81
2022/03/19 00:13:49;;;;;;;15.48;6.35;;;;;;;;;;5043585;28;20017;-81
2022/03/19 00:16:14;;;;;;;16.10;6.20;;;;;;;;;;5043430;28;20106;-81
2022/03/19 00:18:39;;;;;;;15.65;6.18;;;;;;;;;;5043068;28;20101;-83
2022/03/19 00:21:04;;;;;;;17.25;6.22;;;;;;;;;;5043917;28;20017;-80
2022/03/19 00:23:30;;;;;;;16.17;6.07;;;;;;;;;;5048581;28;20024;-80
2022/03/19 00:25:55;;;;;;;15.40;5.60;;;;;;;;;;5047614;28;20060;-79
2022/03/19 00:28:21;;;;;;;16.20;5.75;;;;;;;;;;5050365;28;20025;-82
2022/03/19 00:30:49;;;;;;;14.07;5.47;;;;;;;;;;5044522;28;20033;-78
2022/03/19 00:33:14;;;;;;;12.05;5.65;;;;;;;;;;5040275;28;20026;-81
2022/03/19 00:35:40;;;;;;;12.45;6.20;;;;;;;;;;5042029;28;20074;-82
2022/03/19 00:38:05;;;;;;;20.77;5.60;;;;;;;;;;5039377;28;20017;-80
2022/03/19 00:40:32;;;;;;;17.48;5.93;;;;;;;;;;5035113;28;20587;-81
2022/03/19 00:42:57;;;;;;;13.02;5.78;;;;;;;;;;5033022;28;20032;-79
2022/03/19 00:45:22;;;;;;;16.67;5.20;;;;;;;;;;5034374;28;20018;-80
2022/03/19 00:47:48;;;;;;;18.80;6.22;;;;;;;;;;5025087;28;20554;-80
2022/03/19 00:50:13;;;;;;;16.75;5.75;;;;;;;;;;5034273;28;20396;-80
2022/03/19 00:52:39;;;;;;;11.68;5.18;;;;;;;;;;5031834;28;20037;-81
2022/03/19 00:55:04;;;;;;;15.13;5.20;;;;;;;;;;5046210;22;20535;-90
2022/03/19 00:57:37;;;;;;;15.90;5.30;;;;;;;;;;5038155;28;20123;-89
2022/03/19 01:00:02;;;;;;;12.43;4.78;;;;;;;;;;5042007;28;20028;-90
2022/03/19 01:02:27;;;;;;;11.48;4.30;;;;;;;;;;5038746;28;20018;-91
2022/03/19 01:04:52;;;;;;;8.82;4.03;;;;;;;;;;5036960;28;20018;-89
2022/03/19 01:07:17;;;;;;;9.18;3.50;;;;;;;;;;5042737;28;20059;-91
2022/03/19 01:09:43;;;;;;;12.45;4.43;;;;;;;;;;5042918;28;20525;-90
2022/03/19 01:12:08;;;;;;;14.90;3.80;;;;;;;;;;5044412;28;20081;-89
2022/03/19 01:14:33;;;;;;;11.38;3.97;;;;;;;;;;5042465;28;20101;-88
2022/03/19 01:16:59;;;;;;;10.35;3.60;;;;;;;;;;5042216;28;20022;-89
2022/03/19 01:22:08;;;;;;;11.93;4.20;;;;;;;;;;5037993;28;20440;-90
2022/03/19 01:24:33;;;;;;;9.95;3.08;;;;;;;;;;5041325;28;20017;-90
2022/03/19 01:26:58;;;;;;;15.13;4.20;;;;;;;;;;5042862;28;20025;-90
2022/03/19 01:29:23;;;;;;;13.95;4.43;;;;;;;;;;5043071;28;20028;-89
2022/03/19 01:31:49;;;;;;;12.85;3.10;;;;;;;;;;5044274;28;20006;-89
2022/03/19 01:34:14;;;;;;;12.18;3.17;;;;;;;;;;5044736;28;20028;-90
2022/03/19 01:36:39;;;;;;;9.35;3.00;;;;;;;;;;5042288;28;20029;-91
2022/03/19 01:39:04;;;;;;;12.52;3.80;;;;;;;;;;5034406;28;20044;-89
2022/03/19 01:41:29;;;;;;;10.45;3.10;;;;;;;;;;5042752;28;20017;-89
2022/03/19 01:43:55;;;;;;;15.02;3.72;;;;;;;;;;5041935;28;20018;-90
2022/03/19 01:46:20;;;;;;;10.30;2.60;;;;;;;;;;5043442;28;20093;-90
2022/03/19 01:48:45;;;;;;;9.40;3.28;;;;;;;;;;5043409;28;20580;-90
2022/03/19 01:51:10;;;;;;;8.98;3.10;;;;;;;;;;5043318;28;20032;-90
2022/03/19 01:53:35;;;;;;;11.10;3.25;;;;;;;;;;5042389;28;20086;-90
2022/03/19 01:56:01;;;;;;;11.13;3.15;;;;;;;;;;5033187;28;20032;-89
2022/03/19 01:58:26;;;;;;;10.80;3.42;;;;;;;;;;5042231;28;20477;-90
2022/03/19 02:00:51;;;;;;;9.70;3.20;;;;;;;;;;5042139;28;20028;-90
2022/03/19 02:03:17;;;;;;;14.32;3.13;;;;;;;;;;5042443;28;20021;-91
2022/03/19 02:05:42;;;;;;;11.25;3.22;;;;;;;;;;5043664;28;20028;-89
2022/03/19 02:08:07;;;;;;;10.85;3.22;;;;;;;;;;5045155;28;20056;-89
2022/03/19 02:10:34;;;;;;;13.07;3.60;;;;;;;;;;5043923;28;20024;-89
2022/03/19 02:12:59;;;;;;;11.23;3.22;;;;;;;;;;5045125;28;20497;-90
2022/03/19 02:15:24;;;;;;;11.43;3.70;;;;;;;;;;5043254;28;20033;-90
2022/03/19 02:17:49;;;;;;;13.15;4.55;;;;;;;;;;5044508;28;20040;-91
2022/03/19 02:20:15;;;;;;;13.75;3.28;;;;;;;;;;5044628;28;20096;-91
2022/03/19 02:22:40;;;;;;;13.30;3.55;;;;;;;;;;5056420;28;20026;-88
2022/03/19 02:27:50;;;;;;;9.10;3.17;;;;;;;;;;5044359;28;20029;-90
2022/03/19 02:30:16;;;;;;;15.07;2.72;;;;;;;;;;5052319;28;20002;-88
2022/03/19 02:32:42;;;;;;;10.68;2.83;;;;;;;;;;5055322;28;20034;-89
2022/03/19 02:35:08;;;;;;;11.40;2.85;;;;;;;;;;5047757;28;20025;-89
2022/03/19 02:37:38;;;;;;;5.85;2.63;;;;;;;;;;5039596;28;20053;-90
2022/03/19 02:40:04;;;;;;;11.10;3.42;;;;;;;;;;5047340;28;20029;-90
2022/03/19 02:42:29;;;;;;;9.02;2.67;;;;;;;;;;5054359;28;20044;-90
2022/03/19 02:44:54;;;;;;;17.08;3.40;;;;;;;;;;5057936;28;20032;-89
2022/03/19 02:47:20;;;;;;;15.77;3.30;;;;;;;;;;5058292;28;20052;-91
2022/03/19 02:49:45;;;;;;;10.07;3.20;;;;;;;;;;5051127;28;20465;-91
2022/03/19 02:52:10;;;;;;;11.23;3.35;;;;;;;;;;5042281;28;20523;-91
2022/03/19 02:54:35;;;;;;;13.48;3.72;;;;;;;;;;5039832;28;20051;-89
2022/03/19 02:57:01;;;;;;;12.13;2.83;;;;;;;;;;5040678;28;20080;-91
2022/03/19 02:59:27;;;;;;;9.75;2.90;;;;;;;;;;5037660;28;20016;-89
2022/03/19 03:01:54;;;;;;;8.70;2.67;;;;;;;;;;5038343;28;20097;-89
2022/03/19 03:04:19;;;;;;;10.60;2.70;;;;;;;;;;5037189;28;20021;-89
2022/03/19 03:06:45;;;;;;;12.07;3.47;;;;;;;;;;5036787;28;20440;-89
2022/03/19 03:09:11;;;;;;;11.40;3.05;;;;;;;;;;5036633;28;20480;-88
2022/03/19 03:11:37;;;;;;;9.68;2.92;;;;;;;;;;5037947;28;20020;-86
2022/03/19 03:14:02;;;;;;;10.43;2.90;;;;;;;;;;5043062;28;20427;-85
2022/03/19 03:16:28;;;;;;;14.80;2.90;;;;;;;;;;5041572;28;20020;-87
2022/03/19 03:18:58;;;;;;;8.10;2.67;;;;;;;;;;5042275;28;20110;-88
2022/03/19 03:21:24;;;;;;;11.00;2.90;;;;;;;;;;5041793;28;20024;-87
2022/03/19 03:23:49;;;;;;;12.05;2.60;;;;;;;;;;5042808;28;20456;-86
2022/03/19 03:26:14;;;;;;;11.15;2.95;;;;;;;;;;5043346;28;20028;-87
2022/03/19 03:28:40;;;;;;;10.00;3.13;;;;;;;;;;5042500;28;20045;-86
2022/03/19 03:31:06;;;;;;;9.35;2.35;;;;;;;;;;5040750;28;20018;-87
2022/03/19 03:33:31;;;;;;;9.70;2.78;;;;;;;;;;5037951;28;20047;-88
2022/03/19 03:35:56;;;;;;;7.57;2.80;;;;;;;;;;5026546;28;20044;-84
2022/03/19 03:38:22;;;;;;;11.93;2.80;;;;;;;;;;5036468;28;20035;-84
2022/03/19 03:40:47;;;;;;;9.10;2.90;;;;;;;;;;5035712;28;20017;-86
2022/03/19 03:43:12;;;;;;;9.43;3.75;;;;;;;;;;5036059;28;20027;-85
2022/03/19 03:45:37;;;;;;;10.48;3.50;;;;;;;;;;5035317;28;20056;-86
2022/03/19 03:48:03;;;;;;;13.00;3.08;;;;;;;;;;5036630;28;20018;-86
2022/03/19 03:50:28;;;;;;;12.27;3.20;;;;;;;;;;5035339;28;20049;-87
2022/03/19 03:52:54;;;;;;;15.75;3.30;;;;;;;;;;5027429;28;20031;-87
2022/03/19 03:55:20;;;;;;;7.80;2.63;;;;;;;;;;5043797;28;20037;-85
2022/03/19 03:57:45;;;;;;;11.90;2.75;;;;;;;;;;5046063;28;20021;-88
2022/03/19 04:00:11;;;;;;;11.70;3.03;;;;;;;;;;5045334;28;20028;-86
2022/03/19 04:02:37;;;;;;;8.32;2.63;;;;;;;;;;5051451;28;20022;-85
2022/03/19 04:05:04;;;;;;;13.32;3.80;;;;;;;;;;5049175;28;20014;-84
2022/03/19 04:07:30;;;;;;;11.23;3.38;;;;;;;;;;5051856;28;20423;-84
2022/03/19 04:09:56;;;;;;;14.35;3.20;;;;;;;;;;5038791;28;20022;-88
2022/03/19 04:12:24;;;;;;;10.15;2.90;;;;;;;;;;5049986;28;20027;-87
2022/03/19 04:14:51;;;;;;;12.50;3.13;;;;;;;;;;5058094;28;20005;-87
2022/03/19 04:17:16;;;;;;;9.10;2.42;;;;;;;;;;5167842;22;20049;-85
2022/03/19 04:19:41;;;;;;;9.82;2.40;;;;;;;;;;5059029;28;20040;-85
2022/03/19 04:22:06;;;;;;;10.18;2.90;;;;;;;;;;5057780;28;20093;-85
2022/03/19 04:24:32;;;;;;;10.07;2.80;;;;;;;;;;5055637;28;20029;-86
2022/03/19 04:26:57;;;;;;;12.40;3.92;;;;;;;;;;5056987;28;20002;-84
2022/03/19 04:29:25;;;;;;;9.85;2.72;;;;;;;;;;5054303;28;20044;-86
2022/03/19 04:31:51;;;;;;;11.18;2.95;;;;;;;;;;5056684;28;20010;-86
2022/03/19 04:34:16;;;;;;;12.02;3.17;;;;;;;;;;5049789;28;20032;-84
2022/03/19 04:36:41;;;;;;;13.02;3.03;;;;;;;;;;5052828;28;20053;-85
2022/03/19 04:39:07;;;;;;;12.13;3.03;;;;;;;;;;5056184;28;20075;-85
2022/03/19 04:41:33;;;;;;;8.52;2.30;;;;;;;;;;5056662;28;20030;-85
2022/03/19 04:43:59;;;;;;;6.57;2.42;;;;;;;;;;5057335;28;20041;-86
2022/03/19 04:46:24;;;;;;;11.73;3.25;;;;;;;;;;5058777;28;20002;-87
2022/03/19 04:48:53;;;;;;;14.60;3.33;;;;;;;;;;5059207;28;20010;-87
2022/03/19 04:51:18;;;;;;;9.35;2.80;;;;;;;;;;5059238;28;20022;-86
2022/03/19 04:53:49;;;;;;;10.60;2.83;;;;;;;;;;5187492;22;20045;-85
2022/03/19 04:56:14;;;;;;;15.93;3.15;;;;;;;;;;5196325;22;20041;-87
2022/03/19 05:01:15;;;;;;;9.50;2.90;;;;;;;;;;5329894;22;20075;-84
2022/03/19 05:03:40;;;;;;;11.43;2.50;;;;;;;;;;5382092;22;20033;-85
2022/03/19 05:06:05;;;;;;;7.97;2.60;;;;;;;;;;5097405;22;20053;-86
2022/03/19 05:08:30;;;;;;;8.85;2.67;;;;;;;;;;5079102;28;20020;-86
2022/03/19 05:13:31;;;;;;;10.65;3.33;;;;;;;;;;6107898;22;20016;-86
2022/03/19 05:15:56;;;;;;;10.63;3.78;;;;;;;;;;5602990;22;21029;-85
2022/03/19 05:18:22;;;;;;;13.50;3.13;;;;;;;;;;5172142;22;20037;-88
2022/03/19 05:20:48;;;;;;;10.68;2.72;;;;;;;;;;5148848;22;20037;-86
2022/03/19 05:23:14;;;;;;;9.63;2.67;;;;;;;;;;5078175;28;20039;-83
2022/03/19 05:28:21;;;;;;;9.43;3.15;;;;;;;;;;5943072;22;20047;-86
2022/03/19 05:34:29;;;;;;;14.50;2.80;;;;;;;;;;5401864;22;20062;-84
2022/03/19 05:36:07;;;;;;;14.77;2.72;;;;;;;;;;5472449;22;20046;-86
2022/03/19 05:38:32;;;;;;;15.65;3.17;;;;;;;;;;5665362;22;20074;-84
2022/03/19 05:43:33;;;;;;;12.63;2.90;;;;;;;;;;5838661;22;20041;-85
2022/03/19 05:48:33;;;;;;;10.07;3.00;;;;;;;;;;5742643;22;20273;-87
2022/03/19 05:53:33;;;;;;;12.35;2.78;;;;;;;;;;5579153;22;20031;-85
2022/03/19 05:55:59;;;;;;;10.13;3.50;;;;;;;;;;5776380;23;20030;-86
2022/03/19 05:58:24;;;;;;;14.02;2.45;;;;;;;;;;4999057;28;20446;-85
2022/03/19 06:00:49;;;;;;;12.05;2.75;;;;;;;;;;5040467;23;20016;-83
2022/03/19 06:03:14;;;;;;;7.43;2.55;;;;;;;;;;5716037;22;20062;-83
2022/03/19 06:05:39;;;;;;;20.38;3.35;;;;;;;;;;5137806;23;20043;-85
2022/03/19 06:08:05;;;;;;;14.10;2.92;;;;;;;;;;5075776;22;20050;-84
2022/03/19 06:13:05;;;;;;;12.63;2.47;;;;;;;;;;5622712;22;19906;-86
2022/03/19 06:15:30;;;;;;;12.18;3.08;;;;;;;;;;5079727;23;20030;-85
2022/03/19 06:17:55;;;;;;;12.18;2.92;;;;;;;;;;5005685;28;20029;-83
2022/03/19 06:20:25;;;;;;;13.55;2.65;;;;;;;;;;5006105;28;20053;-84
2022/03/19 06:22:51;;;;;;;10.57;1.90;;;;;;;;;;5612992;22;21024;-84
2022/03/19 06:25:16;;;;;;;12.20;2.40;;;;;;;;;;5246237;23;20086;-85
2022/03/19 06:27:45;;;;;;;18.00;3.35;;;;;;;;;;5002696;28;20041;-85
2022/03/19 06:30:10;;;;;;;10.10;2.40;;;;;;;;;;5000645;22;20077;-87
2022/03/19 06:32:41;;;;;;;11.40;2.63;;;;;;;;;;5005933;28;20042;-84
2022/03/19 06:35:07;;;;;;;8.98;2.40;;;;;;;;;;5085343;22;20099;-82
2022/03/19 06:37:33;;;;;;;17.88;3.28;;;;;;;;;;5003037;28;20018;-86
2022/03/19 06:45:08;;;;;;;10.77;2.55;;;;;;;;;;5788862;22;20038;-88
2022/03/19 06:50:09;;;;;;;14.50;4.65;;;;;;;;;;5733729;23;19914;-85
2022/03/19 06:52:34;;;;;;;10.95;3.38;;;;;;;;;;5005476;28;20007;-86
2022/03/19 06:54:59;;;;;;;23.52;8.30;;;;;;;;;;5320443;22;20054;-81
2022/03/19 06:57:24;;;;;;;27.77;9.38;;;;;;;;;;4996330;28;20026;-79
2022/03/19 06:59:50;;;;;;;19.35;6.88;;;;;;;;;;4978976;28;20018;-84
2022/03/19 07:02:15;;;;;;;19.42;5.53;;;;;;;;;;4982796;28;20026;-80
2022/03/19 07:04:40;;;;;;;10.80;3.10;;;;;;;;;;4983587;28;20095;-81
2022/03/19 07:07:06;;;;;;;13.98;3.08;;;;;;;;;;4985756;28;20023;-84
2022/03/19 07:09:31;;;;;;;14.38;3.58;;;;;;;;;;4985634;28;20027;-87
2022/03/19 07:11:56;;;;;;;8.15;2.75;;;;;;;;;;4982616;28;20478;-82
2022/03/19 07:14:22;;;;;;;14.18;2.72;;;;;;;;;;4999659;28;20044;-85
2022/03/19 07:16:48;;;;;;;18.77;3.50;;;;;;;;;;4997936;28;20033;-81
2022/03/19 07:19:13;;;;;;;10.70;2.55;;;;;;;;;;4996519;28;20026;-83
2022/03/19 07:21:39;;;;;;;12.82;3.55;;;;;;;;;;4978395;28;20734;-80
2022/03/19 07:24:04;;;;;;;15.68;3.40;;;;;;;;;;4995621;28;20014;-79
2022/03/19 07:26:32;;;;;;;14.65;3.75;;;;;;;;;;4994621;28;20018;-79
2022/03/19 07:28:58;;;;;;;17.60;5.03;;;;;;;;;;4996020;28;20014;-81
2022/03/19 07:31:23;;;;;;;14.07;4.25;;;;;;;;;;4979394;28;20446;-80
2022/03/19 07:33:50;;;;;;;12.95;3.30;;;;;;;;;;4978709;28;20065;-81
2022/03/19 07:36:15;;;;;;;12.32;2.80;;;;;;;;;;4997470;28;20046;-89
2022/03/19 07:38:41;;;;;;;18.88;3.90;;;;;;;;;;4980331;28;20371;-81
2022/03/19 07:43:50;;;;;;;11.90;2.75;;;;;;;;;;4994892;28;20033;-81
2022/03/19 07:46:15;;;;;;;12.88;2.83;;;;;;;;;;4980776;28;20105;-84
2022/03/19 07:48:40;;;;;;;12.35;2.97;;;;;;;;;;4996876;28;20030;-81
2022/03/19 07:51:07;;;;;;;7.20;2.55;;;;;;;;;;4978490;28;20022;-80
2022/03/19 07:53:33;;;;;;;11.40;2.55;;;;;;;;;;4995354;28;20029;-81
2022/03/19 07:55:59;;;;;;;11.57;2.88;;;;;;;;;;4995402;28;20027;-84
2022/03/19 07:58:25;;;;;;;24.65;4.38;;;;;;;;;;4977772;28;20121;-85
2022/03/19 08:00:50;;;;;;;14.93;3.30;;;;;;;;;;4990236;28;20109;-84
2022/03/19 08:03:15;;;;;;;14.70;3.17;;;;;;;;;;4994624;28;20206;-80
2022/03/19 08:05:41;;;;;;;10.68;2.40;;;;;;;;;;4994756;28;20033;-83
2022/03/19 08:08:06;;;;;;;12.35;2.50;;;;;;;;;;4976775;28;20054;-82
2022/03/19 08:10:32;;;;;;;12.48;2.10;;;;;;;;;;4994543;28;20026;-83
2022/03/19 08:13:07;;;;;;;13.05;2.47;;;;;;;;;;4994135;28;20037;-86
2022/03/19 08:15:33;;;;;;;11.35;3.30;;;;;;;;;;4993278;28;20050;-86
2022/03/19 08:18:01;;;;;;;9.65;2.70;;;;;;;;;;4994215;28;20050;-83
2022/03/19 08:20:27;;;;;;;8.57;2.20;;;;;;;;;;4976875;28;20019;-84
2022/03/19 08:22:52;;;;;;;11.13;2.80;;;;;;;;;;4994138;28;20026;-86
2022/03/19 08:25:17;;;;;;;9.13;1.88;;;;;;;;;;4976948;28;20133;-87
2022/03/19 08:27:42;;;;;;;11.38;2.88;;;;;;;;;;4977523;28;20450;-84
2022/03/19 08:30:08;;;;;;;18.00;2.28;;;;;;;;;;4994977;28;20026;-84
2022/03/19 08:32:34;;;;;;;8.30;2.13;;;;;;;;;;4976753;28;20034;-83
2022/03/19 08:35:00;;;;;;;12.57;2.67;;;;;;;;;;4979339;28;20046;-85
2022/03/19 08:37:26;;;;;;;12.88;2.30;;;;;;;;;;4994826;28;20053;-84
2022/03/19 08:42:36;;;;;;;12.15;2.35;;;;;;;;;;4993708;28;20064;-88
2022/03/19 08:45:01;;;;;;;15.63;2.80;;;;;;;;;;4981611;28;20049;-81
2022/03/19 08:47:27;;;;;;;9.25;2.42;;;;;;;;;;4989620;28;20030;-81
2022/03/19 08:49:52;;;;;;;11.23;2.40;;;;;;;;;;4976542;28;20094;-80
2022/03/19 08:52:17;;;;;;;13.25;2.45;;;;;;;;;;5002261;28;20536;-81
2022/03/19 08:54:43;;;;;;;9.55;2.28;;;;;;;;;;5004616;28;20030;-84
2022/03/19 08:57:10;;;;;;;9.35;2.28;;;;;;;;;;4981323;28;20121;-86
2022/03/19 08:59:35;;;;;;;8.50;2.50;;;;;;;;;;4983393;28;20041;-82
2022/03/19 09:02:00;;;;;;;11.70;4.65;;;;;;;;;;4978434;28;20493;-85
2022/03/19 09:04:26;;;;;;;15.75;3.60;;;;;;;;;;4976069;28;20389;-87
2022/03/19 09:06:51;;;;;;;12.45;2.35;;;;;;;;;;4976230;28;20504;-84
2022/03/19 09:09:17;;;;;;;13.73;2.45;;;;;;;;;;4983596;28;20026;-86
2022/03/19 09:11:43;;;;;;;9.32;2.00;;;;;;;;;;4983594;28;20027;-84
2022/03/19 09:14:12;;;;;;;9.27;2.20;;;;;;;;;;4986450;28;20046;-86
2022/03/19 09:16:40;;;;;;;;;;;;;;;;;;5003909;28;20025;-88
2022/03/19 09:19:05;;;;;;;10.25;2.17;;;;;;;;;;4985768;28;19910;-87
2022/03/19 09:21:31;;;;;;;12.15;2.75;;;;;;;;;;4989440;28;20033;-87
2022/03/19 09:23:57;;;;;;;10.90;2.67;;;;;;;;;;5007199;28;20102;-86
2022/03/19 09:26:23;;;;;;;14.98;2.67;;;;;;;;;;4985914;28;20015;-87
2022/03/19 09:28:48;;;;;;;9.35;2.42;;;;;;;;;;4976099;28;20026;-87
2022/03/19 09:31:15;;;;;;;11.70;2.78;;;;;;;;;;4999148;28;20041;-88
2022/03/19 09:33:42;;;;;;;11.77;3.15;;;;;;;;;;4976588;28;20027;-89
2022/03/19 09:36:07;;;;;;;13.00;2.75;;;;;;;;;;4976323;28;20064;-86
2022/03/19 09:38:32;;;;;;;7.78;1.90;;;;;;;;;;4976027;28;20050;-86
2022/03/19 09:40:58;;;;;;;13.50;2.75;;;;;;;;;;4993956;28;20046;-86
2022/03/19 09:43:27;;;;;;;14.63;3.67;;;;;;;;;;4993620;28;20034;-85
2022/03/19 09:45:52;;;;;;;13.73;2.65;;;;;;;;;;4995221;28;20161;-87
2022/03/19 09:48:19;;;;;;;20.20;2.90;;;;;;;;;;4977268;28;20049;-86
2022/03/19 09:50:44;;;;;;;12.90;2.63;;;;;;;;;;4980777;28;20501;-88
2022/03/19 09:53:10;;;;;;;17.05;3.13;;;;;;;;;;4996766;28;20085;-88
2022/03/19 09:55:39;;;;;;;8.82;2.45;;;;;;;;;;4979940;28;20030;-88
2022/03/19 09:58:05;;;;;;;14.52;2.90;;;;;;;;;;4996841;28;20022;-86
2022/03/19 10:00:31;;;;;;;17.98;3.92;;;;;;;;;;4979564;28;20030;-86
2022/03/19 10:03:01;;;;;;;16.65;2.90;;;;;;;;;;4983321;28;20029;-87
2022/03/19 10:11:00;;;;;;;9.73;2.50;;;;;;;;;;4983388;28;20041;-87
2022/03/19 10:13:26;;;;;;;8.75;2.28;;;;;;;;;;4979125;28;20113;-86
2022/03/19 10:15:51;;;;;;;13.35;2.92;;;;;;;;;;4979410;28;20026;-87
2022/03/19 10:18:17;;;;;;;17.08;4.75;;;;;;;;;;4997328;28;20042;-86
2022/03/19 10:20:42;;;;;;;17.95;3.13;;;;;;;;;;4996563;28;20029;-89
2022/03/19 10:23:08;;;;;;;10.65;2.30;;;;;;;;;;4997595;28;20390;-86
2022/03/19 10:25:33;;;;;;;13.50;2.40;;;;;;;;;;4979149;28;20034;-85
2022/03/19 10:28:11;;;;;;;8.27;2.40;;;;;;;;;;4996727;28;20023;-85
2022/03/19 10:30:37;;;;;;;17.07;2.83;;;;;;;;;;4979370;28;20024;-85
2022/03/19 10:33:03;;;;;;;10.35;2.33;;;;;;;;;;4998082;28;20260;-85
2022/03/19 10:35:30;;;;;;;12.10;2.42;;;;;;;;;;4979945;28;20393;-84
2022/03/19 10:37:56;;;;;;;11.25;2.50;;;;;;;;;;4979676;28;20153;-83
2022/03/19 10:40:21;;;;;;;10.88;2.90;;;;;;;;;;4979989;28;20325;-82
2022/03/19 10:42:47;;;;;;;11.93;2.70;;;;;;;;;;4997131;28;20466;-82
2022/03/19 10:45:18;;;;;;;13.23;3.25;;;;;;;;;;4996443;28;20058;-82
2022/03/19 10:47:47;;;;;;;16.48;2.78;;;;;;;;;;4978659;28;20437;-82
2022/03/19 10:50:22;;;;;;;10.35;3.40;;;;;;;;;;4978215;28;20470;-80
2022/03/19 10:52:49;;;;;;;7.30;2.00;;;;;;;;;;4977652;28;20030;-80
2022/03/19 10:55:15;;;;;;;8.68;2.00;;;;;;;;;;4977905;28;20038;-79
2022/03/19 10:57:41;;;;;;;11.07;2.83;;;;;;;;;;4994132;28;20018;-80
2022/03/19 11:00:10;;;;;;;12.00;3.05;;;;;;;;;;4995029;28;20030;-78
2022/03/19 11:02:38;;;;;;;8.77;2.30;;;;;;;;;;4978212;28;20126;-79
2022/03/19 11:05:04;;;;;;;11.63;2.43;;;;;;;;;;4995378;28;20447;-79
2022/03/19 11:07:31;;;;;;;11.00;2.38;;;;;;;;;;4978236;28;20335;-78
2022/03/19 11:09:58;;;;;;;8.07;2.70;;;;;;;;;;4977464;28;20037;-79
2022/03/19 11:12:26;;;;;;;11.52;2.78;;;;;;;;;;4994913;28;20073;-77
2022/03/19 11:14:52;;;;;;;7.40;2.05;;;;;;;;;;4976586;28;20398;-81
2022/03/19 11:17:24;;;;;;;7.90;2.05;;;;;;;;;;4994952;28;20022;-79
2022/03/19 11:19:50;;;;;;;9.35;2.97;;;;;;;;;;4958180;28;20050;-80
2022/03/19 11:22:15;;;;;;;9.20;2.53;;;;;;;;;;4975133;28;20022;-77
2022/03/19 11:24:44;;;;;;;9.43;1.90;;;;;;;;;;4958016;28;20022;-78
2022/03/19 11:27:10;;;;;;;9.27;2.45;;;;;;;;;;4975694;28;20102;-79
2022/03/19 11:29:35;;;;;;;9.68;2.05;;;;;;;;;;4975358;28;20046;-78
2022/03/19 11:32:05;;;;;;;16.67;2.20;;;;;;;;;;4961098;28;20082;-79
2022/03/19 11:34:47;;;;;;;11.05;2.17;;;;;;;;;;4979333;28;20026;-81
2022/03/19 11:37:13;;;;;;;10.63;2.38;;;;;;;;;;4995083;28;20081;-79
2022/03/19 11:39:38;;;;;;;8.90;2.28;;;;;;;;;;4977720;28;20019;-78
2022/03/19 11:42:06;;;;;;;10.13;1.83;;;;;;;;;;4977116;28;20101;-81
2022/03/19 11:44:31;;;;;;;8.07;2.67;;;;;;;;;;4977647;28;20507;-78
2022/03/19 11:47:00;;;;;;;10.77;2.60;;;;;;;;;;4994858;28;20101;-79
2022/03/19 11:49:44;;;;;;;9.50;3.13;;;;;;;;;;4976245;28;20026;-80
2022/03/19 11:52:09;;;;;;;7.22;1.92;;;;;;;;;;4976829;28;20023;-80
2022/03/19 11:54:54;;;;;;;7.47;2.70;;;;;;;;;;4976752;28;20033;-80
2022/03/19 11:57:20;;;;;;;8.77;2.20;;;;;;;;;;4979031;28;20022;-78
2022/03/19 11:59:46;;;;;;;9.77;3.00;;;;;;;;;;4976893;28;20018;-78
2022/03/19 12:02:14;;;;;;;11.60;3.22;;;;;;;;;;4977240;28;20045;-78
2022/03/19 12:04:45;;;;;;;10.30;3.00;;;;;;;;;;4976550;28;20092;-80
2022/03/19 12:07:10;;;;;;;11.25;3.67;;;;;;;;;;4976581;28;20548;-80
2022/03/19 12:09:38;;;;;;;8.50;3.80;;;;;;;;;;4994064;28;20026;-80
2022/03/19 12:12:15;;;;;;;17.42;5.07;;;;;;;;;;4993662;28;20492;-80
2022/03/19 12:14:41;;;;;;;8.30;3.60;;;;;;;;;;4976842;28;20466;-78
2022/03/19 12:17:20;;;;;;;10.32;4.75;;;;;;;;;;4977042;28;20029;-79
2022/03/19 12:19:45;;;;;;;;;;;;;;;;;;4994862;28;20050;-79
2022/03/19 12:22:10;;;;;;;14.00;4.65;;;;;;;;;;4974947;28;19956;-79
2022/03/19 12:24:40;;;;;;;11.52;4.88;;;;;;;;;;4975822;28;20263;-77
2022/03/19 12:27:06;;;;;;;14.80;5.65;;;;;;;;;;4976045;28;20458;-78
2022/03/19 12:29:34;;;;;;;28.38;12.10;;;;;;;;;;4993523;28;20061;-81
2022/03/19 12:31:59;;;;;;;34.45;14.48;;;;;;;;;;4993441;28;20053;-81
2022/03/19 12:34:26;;;;;;;15.52;6.93;;;;;;;;;;4993413;28;20390;-79
2022/03/19 12:36:52;;;;;;;19.52;6.45;;;;;;;;;;4976188;28;20025;-80
2022/03/19 12:39:18;;;;;;;17.98;6.60;;;;;;;;;;4974768;28;20041;-78
2022/03/19 12:41:44;;;;;;;15.13;7.63;;;;;;;;;;4967394;28;20022;-78
2022/03/19 12:44:23;;;;;;;28.02;10.80;;;;;;;;;;4975446;28;20018;-78
2022/03/19 12:46:53;;;;;;;15.02;7.60;;;;;;;;;;4993136;28;20010;-79
2022/03/19 12:49:18;;;;;;;30.08;11.32;;;;;;;;;;4975559;28;20104;-78
2022/03/19 12:51:45;;;;;;;18.75;9.07;;;;;;;;;;4975516;28;20438;-79
2022/03/19 12:54:18;;;;;;;26.52;10.45;;;;;;;;;;4974078;28;20027;-79
2022/03/19 12:56:43;;;;;;;22.25;10.70;;;;;;;;;;4983439;23;20137;-79
2022/03/19 12:59:14;;;;;;;16.70;8.48;;;;;;;;;;4974593;28;20106;-81
2022/03/19 13:01:54;;;;;;;18.58;8.40;;;;;;;;;;5069106;28;20383;-80
2022/03/19 13:04:24;;;;;;;22.08;7.65;;;;;;;;;;5069425;28;20108;-80
2022/03/19 13:06:49;;;;;;;20.33;8.45;;;;;;;;;;5059199;28;20115;-79
2022/03/19 13:09:15;;;;;;;25.27;11.10;;;;;;;;;;5069246;28;20104;-79
2022/03/19 13:11:44;;;;;;;14.30;7.78;;;;;;;;;;5064613;28;20504;-80
2022/03/19 13:14:12;;;;;;;17.85;9.57;;;;;;;;;;5069369;28;20029;-80
2022/03/19 13:16:38;;;;;;;22.33;9.00;;;;;;;;;;5070955;28;20400;-79
2022/03/19 13:19:04;;;;;;;20.60;9.18;;;;;;;;;;5069375;28;20027;-79
2022/03/19 13:21:30;;;;;;;16.75;8.13;;;;;;;;;;5070395;28;20071;-80
2022/03/19 13:23:58;;;;;;;14.02;8.18;;;;;;;;;;5069011;28;20051;-80
2022/03/19 13:26:24;;;;;;;16.65;8.43;;;;;;;;;;5068513;28;20028;-80
2022/03/19 13:29:05;;;;;;;20.30;9.73;;;;;;;;;;5066576;28;20029;-80
2022/03/19 13:31:34;;;;;;;12.32;8.40;;;;;;;;;;5068439;28;20029;-79
2022/03/19 13:34:00;;;;;;;19.90;9.55;;;;;;;;;;5068640;28;20024;-80
2022/03/19 13:36:26;;;;;;;17.23;10.18;;;;;;;;;;5068275;28;20031;-80
2022/03/19 13:39:00;;;;;;;17.23;9.82;;;;;;;;;;5067050;28;20016;-78
2022/03/19 13:41:25;;;;;;;18.00;10.18;;;;;;;;;;5067025;28;20561;-79
2022/03/19 13:43:50;;;;;;;17.70;9.48;;;;;;;;;;5067970;28;20100;-79
2022/03/19 13:46:17;;;;;;;17.23;9.48;;;;;;;;;;5063834;28;20372;-80
2022/03/19 13:48:42;;;;;;;22.15;10.82;;;;;;;;;;5067705;28;20042;-80
2022/03/19 13:51:08;;;;;;;20.05;10.00;;;;;;;;;;5067926;28;20499;-79
2022/03/19 13:56:56;;;;;;;17.00;10.63;;;;;;;;;;5067920;28;20031;-80
2022/03/19 13:59:30;;;;;;;19.80;9.70;;;;;;;;;;5067011;28;20059;-80
2022/03/19 14:01:56;;;;;;;21.42;10.25;;;;;;;;;;5065989;28;20385;-79
2022/03/19 14:04:24;;;;;;;20.00;9.35;;;;;;;;;;5064489;28;20119;-80
2022/03/19 14:06:50;;;;;;;23.13;9.23;;;;;;;;;;5068120;28;20016;-79
2022/03/19 14:09:15;;;;;;;16.00;9.23;;;;;;;;;;5066486;28;20017;-80
2022/03/19 14:11:48;;;;;;;16.15;10.00;;;;;;;;;;5063069;28;20078;-79
2022/03/19 14:14:17;;;;;;;16.75;8.32;;;;;;;;;;5053258;28;20480;-80
2022/03/19 14:16:55;;;;;;;26.63;12.15;;;;;;;;;;5054549;28;20021;-80
2022/03/19 14:19:20;;;;;;;13.70;7.85;;;;;;;;;;5051696;28;20503;-79
2022/03/19 14:21:46;;;;;;;19.67;9.23;;;;;;;;;;5052765;28;20036;-79
2022/03/19 14:24:11;;;;;;;17.83;8.95;;;;;;;;;;5052806;28;20484;-79
2022/03/19 14:26:36;;;;;;;18.25;8.52;;;;;;;;;;5053788;28;20056;-79
2022/03/19 14:29:02;;;;;;;15.23;9.05;;;;;;;;;;5053818;28;20361;-80
2022/03/19 14:31:31;;;;;;;16.30;8.32;;;;;;;;;;5053932;28;20091;-80
2022/03/19 14:33:56;;;;;;;12.88;8.13;;;;;;;;;;5054324;28;20017;-78
2022/03/19 14:36:21;;;;;;;14.65;8.15;;;;;;;;;;5051040;28;20036;-79
2022/03/19 14:38:48;;;;;;;15.57;8.35;;;;;;;;;;5053525;28;20036;-80
2022/03/19 14:41:15;;;;;;;16.48;9.63;;;;;;;;;;5052151;28;20029;-79
2022/03/19 14:43:41;;;;;;;17.30;9.55;;;;;;;;;;5053448;28;20116;-79
2022/03/19 14:46:07;;;;;;;20.85;9.57;;;;;;;;;;5053554;28;20040;-78
2022/03/19 14:48:33;;;;;;;15.95;9.23;;;;;;;;;;5053760;28;20534;-79
2022/03/19 14:51:00;;;;;;;14.45;8.70;;;;;;;;;;5053549;28;20385;-79
2022/03/19 14:53:25;;;;;;;17.40;9.57;;;;;;;;;;5051073;28;20024;-79
2022/03/19 14:55:51;;;;;;;15.77;9.00;;;;;;;;;;5053551;28;20036;-77
2022/03/19 14:58:17;;;;;;;19.15;9.30;;;;;;;;;;5054331;28;20103;-78
2022/03/19 15:00:42;;;;;;;15.35;8.90;;;;;;;;;;5051924;28;20124;-79
2022/03/19 15:03:09;;;;;;;18.13;10.13;;;;;;;;;;5053402;28;20112;-78
2022/03/19 15:05:34;;;;;;;16.35;10.02;;;;;;;;;;5053330;28;20023;-78
2022/03/19 15:07:59;;;;;;;19.85;8.98;;;;;;;;;;5052102;28;20096;-79
2022/03/19 15:10:25;;;;;;;17.30;9.40;;;;;;;;;;5050468;28;20029;-79
2022/03/19 15:12:53;;;;;;;18.90;10.48;;;;;;;;;;5053190;28;20431;-78
2022/03/19 15:15:19;;;;;;;15.88;9.73;;;;;;;;;;5053701;28;20021;-79
2022/03/19 15:17:44;;;;;;;20.10;9.95;;;;;;;;;;5053094;28;20361;-77